sensor_id;sensor_type;location;lat;lon;timestamp;pressure;altitude;pressure_sealevel;temperature;humidity
26697;BME280;14312;52.614;13.496;2023-06-22T00:01:11;101222.06;;;24.25;53.10
26697;BME280;14312;52.614;13.496;2023-06-22T00:03:57;101233.63;;;24.22;53.25
26697;BME280;14312;52.614;13.496;2023-06-22T00:06:43;101242.91;;;24.21;53.69
26697;BME280;14312;52.614;13.496;2023-06-22T00:09:29;101246.75;;;24.20;53.52
26697;BME280;14312;52.614;13.496;2023-06-22T00:12:15;101241.88;;;24.17;53.66
26697;BME280;14312;52.614;13.496;2023-06-22T00:15:00;101245.72;;;24.16;53.70
26697;BME280;14312;52.614;13.496;2023-06-22T00:17:46;101239.31;;;24.12;53.78
26697;BME280;14312;52.614;13.496;2023-06-22T00:20:33;101245.72;;;24.07;53.62
26697;BME280;14312;52.614;13.496;2023-06-22T00:23:19;101252.09;;;24.03;53.63
26697;BME280;14312;52.614;13.496;2023-06-22T00:26:09;101254.97;;;23.98;54.08
26697;BME280;14312;52.614;13.496;2023-06-22T00:28:55;101257.03;;;23.92;53.92
26697;BME280;14312;52.614;13.496;2023-06-22T00:31:40;101255.22;;;23.88;53.97
26697;BME280;14312;52.614;13.496;2023-06-22T00:34:26;101255.38;;;23.83;54.37
26697;BME280;14312;52.614;13.496;2023-06-22T00:37:12;101262.88;;;23.77;54.37
26697;BME280;14312;52.614;13.496;2023-06-22T00:39:58;101263.84;;;23.72;54.22
26697;BME280;14312;52.614;13.496;2023-06-22T00:42:44;101265.84;;;23.67;54.65
26697;BME280;14312;52.614;13.496;2023-06-22T00:45:30;101273.34;;;23.61;54.61
26697;BME280;14312;52.614;13.496;2023-06-22T00:48:17;101270.78;;;23.56;54.73
26697;BME280;14312;52.614;13.496;2023-06-22T00:51:03;101274.44;;;23.52;55.02
26697;BME280;14312;52.614;13.496;2023-06-22T00:53:50;101269.38;;;23.45;55.01
26697;BME280;14312;52.614;13.496;2023-06-22T00:56:37;101273.84;;;23.41;54.98
26697;BME280;14312;52.614;13.496;2023-06-22T00:59:23;101271.25;;;23.36;54.95
26697;BME280;14312;52.614;13.496;2023-06-22T01:02:10;101270.91;;;23.29;55.16
26697;BME280;14312;52.614;13.496;2023-06-22T01:04:56;101268.28;;;23.24;55.20
26697;BME280;14312;52.614;13.496;2023-06-22T01:13:53;101280.16;;;23.06;56.26
26697;BME280;14312;52.614;13.496;2023-06-22T01:16:44;101284.69;;;22.96;55.46
26697;BME280;14312;52.614;13.496;2023-06-22T01:19:49;101281.31;;;22.91;56.57
26697;BME280;14312;52.614;13.496;2023-06-22T01:26:06;101292.22;;;22.77;56.80
26697;BME280;14312;52.614;13.496;2023-06-22T01:28:55;101277.41;;;22.70;56.15
26697;BME280;14312;52.614;13.496;2023-06-22T01:31:43;101280.53;;;22.63;56.24
26697;BME280;14312;52.614;13.496;2023-06-22T01:34:31;101275.69;;;22.60;56.17
26697;BME280;14312;52.614;13.496;2023-06-22T01:37:18;101282.34;;;22.54;56.38
26697;BME280;14312;52.614;13.496;2023-06-22T01:40:05;101282.97;;;22.51;56.49
26697;BME280;14312;52.614;13.496;2023-06-22T01:42:53;101285.78;;;22.46;56.45
26697;BME280;14312;52.614;13.496;2023-06-22T01:45:39;101296.75;;;22.41;56.62
26697;BME280;14312;52.614;13.496;2023-06-22T01:48:26;101294.44;;;22.34;56.54
26697;BME280;14312;52.614;13.496;2023-06-22T01:51:12;101301.91;;;22.29;56.79
26697;BME280;14312;52.614;13.496;2023-06-22T01:53:58;101308.53;;;22.22;56.81
26697;BME280;14312;52.614;13.496;2023-06-22T01:56:44;101313.22;;;22.17;57.09
26697;BME280;14312;52.614;13.496;2023-06-22T02:02:59;101312.63;;;22.06;57.73
26697;BME280;14312;52.614;13.496;2023-06-22T02:06:06;101303.50;;;22.02;58.17
26697;BME280;14312;52.614;13.496;2023-06-22T02:08:59;101307.91;;;21.98;58.02
26697;BME280;14312;52.614;13.496;2023-06-22T02:11:47;101307.44;;;21.91;57.48
26697;BME280;14312;52.614;13.496;2023-06-22T02:14:34;101315.69;;;21.86;57.67
26697;BME280;14312;52.614;13.496;2023-06-22T02:17:21;101315.69;;;21.86;57.62
26697;BME280;14312;52.614;13.496;2023-06-22T02:20:12;101308.13;;;21.83;58.42
26697;BME280;14312;52.614;13.496;2023-06-22T02:22:59;101321.22;;;21.81;58.00
26697;BME280;14312;52.614;13.496;2023-06-22T02:25:44;101325.31;;;21.78;57.79
26697;BME280;14312;52.614;13.496;2023-06-22T02:28:30;101324.00;;;21.76;58.05
26697;BME280;14312;52.614;13.496;2023-06-22T02:31:17;101321.91;;;21.73;58.08
26697;BME280;14312;52.614;13.496;2023-06-22T02:34:03;101318.66;;;21.71;58.16
26697;BME280;14312;52.614;13.496;2023-06-22T02:36:49;101325.19;;;21.70;58.20
26697;BME280;14312;52.614;13.496;2023-06-22T02:39:38;101327.91;;;21.70;58.49
26697;BME280;14312;52.614;13.496;2023-06-22T02:42:24;101330.09;;;21.68;58.69
26697;BME280;14312;52.614;13.496;2023-06-22T02:45:10;101321.97;;;21.68;58.72
26697;BME280;14312;52.614;13.496;2023-06-22T02:47:56;101326.91;;;21.66;58.92
26697;BME280;14312;52.614;13.496;2023-06-22T02:50:42;101343.66;;;21.68;58.92
26697;BME280;14312;52.614;13.496;2023-06-22T02:53:28;101338.75;;;21.70;58.74
26697;BME280;14312;52.614;13.496;2023-06-22T02:56:14;101337.13;;;21.69;58.73
26697;BME280;14312;52.614;13.496;2023-06-22T02:59:00;101333.13;;;21.66;58.79
26697;BME280;14312;52.614;13.496;2023-06-22T03:01:46;101340.47;;;21.66;59.01
26697;BME280;14312;52.614;13.496;2023-06-22T03:04:33;101337.75;;;21.66;58.86
26697;BME280;14312;52.614;13.496;2023-06-22T03:07:20;101338.56;;;21.66;58.98
26697;BME280;14312;52.614;13.496;2023-06-22T03:10:10;101340.47;;;21.66;59.13
26697;BME280;14312;52.614;13.496;2023-06-22T03:12:56;101329.63;;;21.66;59.38
26697;BME280;14312;52.614;13.496;2023-06-22T03:15:42;101338.56;;;21.66;59.52
26697;BME280;14312;52.614;13.496;2023-06-22T03:18:28;101345.56;;;21.67;59.57
26697;BME280;14312;52.614;13.496;2023-06-22T03:21:14;101338.75;;;21.70;59.57
26697;BME280;14312;52.614;13.496;2023-06-22T03:24:01;101324.09;;;21.71;59.61
26697;BME280;14312;52.614;13.496;2023-06-22T03:26:47;101337.56;;;21.76;59.78
26697;BME280;14312;52.614;13.496;2023-06-22T03:29:33;101332.94;;;21.76;59.56
26697;BME280;14312;52.614;13.496;2023-06-22T03:32:19;101338.59;;;21.80;59.63
26697;BME280;14312;52.614;13.496;2023-06-22T03:35:06;101333.66;;;21.82;59.83
26697;BME280;14312;52.614;13.496;2023-06-22T03:37:52;101322.50;;;21.83;59.77
26697;BME280;14312;52.614;13.496;2023-06-22T03:40:38;101336.59;;;21.85;59.94
26697;BME280;14312;52.614;13.496;2023-06-22T03:43:24;101332.78;;;21.86;59.88
26697;BME280;14312;52.614;13.496;2023-06-22T03:46:10;101336.78;;;21.89;59.89
26697;BME280;14312;52.614;13.496;2023-06-22T03:48:56;101336.78;;;21.89;59.98
26697;BME280;14312;52.614;13.496;2023-06-22T03:51:42;101322.13;;;21.90;59.91
26697;BME280;14312;52.614;13.496;2023-06-22T03:54:29;101331.59;;;21.93;60.32
26697;BME280;14312;52.614;13.496;2023-06-22T03:57:15;101326.97;;;21.93;60.44
26697;BME280;14312;52.614;13.496;2023-06-22T04:00:02;101329.09;;;21.96;60.31
26697;BME280;14312;52.614;13.496;2023-06-22T04:02:51;101325.00;;;21.99;60.41
26697;BME280;14312;52.614;13.496;2023-06-22T04:05:38;101330.63;;;22.02;60.71
26697;BME280;14312;52.614;13.496;2023-06-22T04:08:24;101328.41;;;22.04;60.56
26697;BME280;14312;52.614;13.496;2023-06-22T04:11:10;101327.81;;;22.07;60.45
26697;BME280;14312;52.614;13.496;2023-06-22T04:13:56;101326.41;;;22.10;60.50
26697;BME280;14312;52.614;13.496;2023-06-22T04:16:42;101325.00;;;22.12;60.58
26697;BME280;14312;52.614;13.496;2023-06-22T04:19:28;101322.81;;;22.14;60.71
26697;BME280;14312;52.614;13.496;2023-06-22T04:22:14;101328.44;;;22.18;60.76
26697;BME280;14312;52.614;13.496;2023-06-22T04:25:00;101326.72;;;22.22;60.93
26697;BME280;14312;52.614;13.496;2023-06-22T04:27:46;101332.06;;;22.27;60.76
26697;BME280;14312;52.614;13.496;2023-06-22T04:30:33;101333.06;;;22.31;60.96
26697;BME280;14312;52.614;13.496;2023-06-22T04:33:19;101340.31;;;22.36;60.99
26697;BME280;14312;52.614;13.496;2023-06-22T04:36:05;101340.72;;;22.43;61.01
26697;BME280;14312;52.614;13.496;2023-06-22T04:38:51;101343.31;;;22.48;61.16
26697;BME280;14312;52.614;13.496;2023-06-22T04:41:39;101349.97;;;22.55;61.18
26697;BME280;14312;52.614;13.496;2023-06-22T04:44:28;101347.94;;;22.61;61.19
26697;BME280;14312;52.614;13.496;2023-06-22T04:47:14;101352.97;;;22.67;61.07
26697;BME280;14312;52.614;13.496;2023-06-22T04:50:00;101355.81;;;22.76;61.33
26697;BME280;14312;52.614;13.496;2023-06-22T04:52:51;101355.09;;;22.84;61.33
26697;BME280;14312;52.614;13.496;2023-06-22T04:55:37;101347.34;;;22.91;61.15
26697;BME280;14312;52.614;13.496;2023-06-22T04:58:27;101349.34;;;22.99;61.23
26697;BME280;14312;52.614;13.496;2023-06-22T05:01:14;101358.41;;;23.09;61.23
26697;BME280;14312;52.614;13.496;2023-06-22T05:04:00;101357.97;;;23.15;61.21
26697;BME280;14312;52.614;13.496;2023-06-22T05:06:49;101370.53;;;23.25;61.11
26697;BME280;14312;52.614;13.496;2023-06-22T05:09:34;101364.66;;;23.31;61.14
26697;BME280;14312;52.614;13.496;2023-06-22T05:12:20;101356.56;;;23.40;61.32
26697;BME280;14312;52.614;13.496;2023-06-22T05:15:07;101359.91;;;23.51;61.19
26697;BME280;14312;52.614;13.496;2023-06-22T05:17:53;101362.06;;;23.62;61.42
26697;BME280;14312;52.614;13.496;2023-06-22T05:20:39;101356.53;;;23.76;60.89
26697;BME280;14312;52.614;13.496;2023-06-22T05:23:25;101357.56;;;23.89;60.56
26697;BME280;14312;52.614;13.496;2023-06-22T05:26:11;101361.66;;;24.00;60.22
26697;BME280;14312;52.614;13.496;2023-06-22T05:28:58;101363.78;;;24.11;60.05
26697;BME280;14312;52.614;13.496;2023-06-22T05:31:44;101365.94;;;24.23;59.64
26697;BME280;14312;52.614;13.496;2023-06-22T05:34:30;101360.25;;;24.33;59.85
26697;BME280;14312;52.614;13.496;2023-06-22T05:37:16;101365.91;;;24.45;59.18
26697;BME280;14312;52.614;13.496;2023-06-22T05:40:03;101366.13;;;24.57;58.74
26697;BME280;14312;52.614;13.496;2023-06-22T05:42:49;101358.94;;;24.70;58.52
26697;BME280;14312;52.614;13.496;2023-06-22T05:45:35;101353.97;;;24.81;58.11
26697;BME280;14312;52.614;13.496;2023-06-22T05:48:20;101366.22;;;24.92;57.95
26697;BME280;14312;52.614;13.496;2023-06-22T05:51:07;101364.28;;;25.01;57.01
26697;BME280;14312;52.614;13.496;2023-06-22T05:53:53;101364.63;;;25.08;57.31
26697;BME280;14312;52.614;13.496;2023-06-22T05:56:39;101372.69;;;25.13;56.79
26697;BME280;14312;52.614;13.496;2023-06-22T05:59:25;101372.19;;;25.20;56.73
26697;BME280;14312;52.614;13.496;2023-06-22T06:02:11;101374.75;;;25.25;56.49
26697;BME280;14312;52.614;13.496;2023-06-22T06:04:56;101375.88;;;25.32;56.90
26697;BME280;14312;52.614;13.496;2023-06-22T06:07:43;101384.88;;;25.42;56.46
26697;BME280;14312;52.614;13.496;2023-06-22T06:10:29;101387.94;;;25.49;56.53
26697;BME280;14312;52.614;13.496;2023-06-22T06:13:18;101380.88;;;25.56;56.63
26697;BME280;14312;52.614;13.496;2023-06-22T06:16:04;101395.00;;;25.67;56.08
26697;BME280;14312;52.614;13.496;2023-06-22T06:18:51;101388.75;;;25.75;56.26
26697;BME280;14312;52.614;13.496;2023-06-22T06:21:38;101382.94;;;25.85;55.49
26697;BME280;14312;52.614;13.496;2023-06-22T06:24:24;101378.59;;;25.93;55.50
26697;BME280;14312;52.614;13.496;2023-06-22T06:27:10;101379.72;;;26.00;55.27
26697;BME280;14312;52.614;13.496;2023-06-22T06:29:57;101381.94;;;26.07;54.77
26697;BME280;14312;52.614;13.496;2023-06-22T06:32:44;101379.16;;;26.16;54.55
26697;BME280;14312;52.614;13.496;2023-06-22T06:35:31;101371.94;;;26.20;54.68
26697;BME280;14312;52.614;13.496;2023-06-22T06:38:17;101370.66;;;26.26;54.33
26697;BME280;14312;52.614;13.496;2023-06-22T06:41:03;101373.66;;;26.33;54.16
26697;BME280;14312;52.614;13.496;2023-06-22T06:43:49;101377.81;;;26.39;53.61
26697;BME280;14312;52.614;13.496;2023-06-22T06:46:34;101384.72;;;26.45;53.97
26697;BME280;14312;52.614;13.496;2023-06-22T06:49:20;101388.53;;;26.52;53.14
26697;BME280;14312;52.614;13.496;2023-06-22T06:52:06;101380.94;;;26.58;53.65
26697;BME280;14312;52.614;13.496;2023-06-22T06:54:52;101381.06;;;26.70;53.24
26697;BME280;14312;52.614;13.496;2023-06-22T06:57:38;101385.22;;;26.76;52.92
26697;BME280;14312;52.614;13.496;2023-06-22T07:00:24;101381.63;;;26.84;52.64
26697;BME280;14312;52.614;13.496;2023-06-22T07:03:10;101372.13;;;26.91;52.63
26697;BME280;14312;52.614;13.496;2023-06-22T07:05:56;101373.00;;;27.03;52.93
26697;BME280;14312;52.614;13.496;2023-06-22T07:08:42;101354.91;;;27.11;52.46
26697;BME280;14312;52.614;13.496;2023-06-22T07:11:28;101358.03;;;27.21;51.95
26697;BME280;14312;52.614;13.496;2023-06-22T07:14:15;101361.50;;;27.31;51.80
26697;BME280;14312;52.614;13.496;2023-06-22T07:17:01;101349.22;;;27.37;51.62
26697;BME280;14312;52.614;13.496;2023-06-22T07:19:47;101345.59;;;27.45;51.38
26697;BME280;14312;52.614;13.496;2023-06-22T07:22:32;101350.69;;;27.55;51.52
26697;BME280;14312;52.614;13.496;2023-06-22T07:25:19;101342.19;;;27.69;50.66
26697;BME280;14312;52.614;13.496;2023-06-22T07:28:06;101339.94;;;27.83;50.94
26697;BME280;14312;52.614;13.496;2023-06-22T07:30:52;101341.09;;;27.94;50.64
26697;BME280;14312;52.614;13.496;2023-06-22T07:33:38;101332.91;;;28.06;50.62
26697;BME280;14312;52.614;13.496;2023-06-22T07:36:24;101326.31;;;28.19;50.36
26697;BME280;14312;52.614;13.496;2023-06-22T07:39:10;101329.72;;;28.28;50.10
26697;BME280;14312;52.614;13.496;2023-06-22T07:41:57;101333.72;;;28.43;49.72
26697;BME280;14312;52.614;13.496;2023-06-22T07:44:43;101325.06;;;28.53;49.14
26697;BME280;14312;52.614;13.496;2023-06-22T07:47:29;101323.34;;;28.61;48.34
26697;BME280;14312;52.614;13.496;2023-06-22T07:50:15;101331.06;;;28.71;47.84
26697;BME280;14312;52.614;13.496;2023-06-22T07:53:01;101319.13;;;28.75;47.74
26697;BME280;14312;52.614;13.496;2023-06-22T07:55:47;101319.66;;;28.81;47.55
26697;BME280;14312;52.614;13.496;2023-06-22T07:58:33;101312.78;;;28.87;47.35
26697;BME280;14312;52.614;13.496;2023-06-22T08:01:19;101320.09;;;28.95;47.06
26697;BME280;14312;52.614;13.496;2023-06-22T08:04:06;101314.81;;;29.02;46.95
26697;BME280;14312;52.614;13.496;2023-06-22T08:06:52;101309.53;;;29.09;46.89
26697;BME280;14312;52.614;13.496;2023-06-22T08:09:38;101316.81;;;29.17;46.81
26697;BME280;14312;52.614;13.496;2023-06-22T08:12:24;101306.50;;;29.27;46.76
26697;BME280;14312;52.614;13.496;2023-06-22T08:15:10;101312.31;;;29.37;46.32
26697;BME280;14312;52.614;13.496;2023-06-22T08:17:56;101308.25;;;29.47;46.55
26697;BME280;14312;52.614;13.496;2023-06-22T08:20:43;101308.63;;;29.61;46.12
26697;BME280;14312;52.614;13.496;2023-06-22T08:23:29;101319.09;;;29.71;46.07
26697;BME280;14312;52.614;13.496;2023-06-22T08:26:15;101316.72;;;29.85;46.11
26697;BME280;14312;52.614;13.496;2023-06-22T08:29:02;101317.03;;;29.96;45.44
26697;BME280;14312;52.614;13.496;2023-06-22T08:31:48;101320.03;;;30.07;45.62
26697;BME280;14312;52.614;13.496;2023-06-22T08:34:34;101325.47;;;30.19;45.13
26697;BME280;14312;52.614;13.496;2023-06-22T08:37:20;101318.97;;;30.27;45.08
26697;BME280;14312;52.614;13.496;2023-06-22T08:40:08;101322.31;;;30.36;44.05
26697;BME280;14312;52.614;13.496;2023-06-22T08:42:55;101314.53;;;30.38;44.42
26697;BME280;14312;52.614;13.496;2023-06-22T08:45:41;101321.63;;;30.39;44.24
26697;BME280;14312;52.614;13.496;2023-06-22T08:48:27;101315.84;;;30.44;44.32
26697;BME280;14312;52.614;13.496;2023-06-22T08:51:13;101321.06;;;30.49;44.40
26697;BME280;14312;52.614;13.496;2023-06-22T08:53:59;101321.25;;;30.56;44.21
26697;BME280;14312;52.614;13.496;2023-06-22T08:56:45;101319.81;;;30.62;43.83
26697;BME280;14312;52.614;13.496;2023-06-22T08:59:31;101312.91;;;30.68;43.62
26697;BME280;14312;52.614;13.496;2023-06-22T09:02:17;101318.56;;;30.76;43.02
26697;BME280;14312;52.614;13.496;2023-06-22T09:05:04;101323.31;;;30.79;43.10
26697;BME280;14312;52.614;13.496;2023-06-22T09:07:50;101315.50;;;30.81;43.47
26697;BME280;14312;52.614;13.496;2023-06-22T09:10:36;101320.22;;;30.80;42.58
26697;BME280;14312;52.614;13.496;2023-06-22T09:13:22;101310.88;;;30.85;42.77
26697;BME280;14312;52.614;13.496;2023-06-22T09:16:08;101308.56;;;30.87;42.59
26697;BME280;14312;52.614;13.496;2023-06-22T09:18:54;101302.75;;;30.92;42.99
26697;BME280;14312;52.614;13.496;2023-06-22T09:21:40;101303.28;;;30.97;42.72
26697;BME280;14312;52.614;13.496;2023-06-22T09:24:26;101301.94;;;31.07;42.44
26697;BME280;14312;52.614;13.496;2023-06-22T09:27:12;101301.34;;;31.17;42.88
26697;BME280;14312;52.614;13.496;2023-06-22T09:29:58;101295.38;;;31.34;43.02
26697;BME280;14312;52.614;13.496;2023-06-22T09:32:44;101302.88;;;31.57;42.26
26697;BME280;14312;52.614;13.496;2023-06-22T09:35:30;101304.06;;;31.75;42.17
26697;BME280;14312;52.614;13.496;2023-06-22T09:38:16;101301.22;;;31.94;41.28
26697;BME280;14312;52.614;13.496;2023-06-22T09:41:03;101291.16;;;32.05;41.03
26697;BME280;14312;52.614;13.496;2023-06-22T09:43:49;101289.25;;;32.09;40.60
26697;BME280;14312;52.614;13.496;2023-06-22T09:46:38;101287.34;;;32.13;40.26
26697;BME280;14312;52.614;13.496;2023-06-22T09:49:24;101276.41;;;32.17;40.48
26697;BME280;14312;52.614;13.496;2023-06-22T09:52:10;101289.63;;;32.31;40.00
26697;BME280;14312;52.614;13.496;2023-06-22T09:54:57;101282.38;;;32.49;39.50
26697;BME280;14312;52.614;13.496;2023-06-22T09:57:43;101283.00;;;32.65;39.70
26697;BME280;14312;52.614;13.496;2023-06-22T10:00:29;101282.88;;;32.84;39.98
26697;BME280;14312;52.614;13.496;2023-06-22T10:03:15;101280.81;;;33.08;40.29
26697;BME280;14312;52.614;13.496;2023-06-22T10:06:01;101283.53;;;33.37;39.75
26697;BME280;14312;52.614;13.496;2023-06-22T10:08:50;101284.59;;;33.66;39.51
26697;BME280;14312;52.614;13.496;2023-06-22T10:11:36;101282.50;;;33.97;37.69
26697;BME280;14312;52.614;13.496;2023-06-22T10:14:22;101286.63;;;34.17;35.41
26697;BME280;14312;52.614;13.496;2023-06-22T10:17:10;101283.53;;;34.22;36.24
26697;BME280;14312;52.614;13.496;2023-06-22T10:19:55;101285.16;;;34.30;35.92
26697;BME280;14312;52.614;13.496;2023-06-22T10:22:43;101282.03;;;34.35;35.38
26697;BME280;14312;52.614;13.496;2023-06-22T10:25:29;101274.13;;;34.37;36.20
26697;BME280;14312;52.614;13.496;2023-06-22T10:28:16;101275.34;;;34.43;36.42
26697;BME280;14312;52.614;13.496;2023-06-22T10:31:02;101282.91;;;34.53;34.05
26697;BME280;14312;52.614;13.496;2023-06-22T10:33:49;101279.34;;;34.49;35.23
26697;BME280;14312;52.614;13.496;2023-06-22T10:36:35;101268.25;;;34.46;34.99
26697;BME280;14312;52.614;13.496;2023-06-22T10:39:21;101271.78;;;34.46;35.28
26697;BME280;14312;52.614;13.496;2023-06-22T10:42:07;101266.28;;;34.53;35.71
26697;BME280;14312;52.614;13.496;2023-06-22T10:44:54;101264.78;;;34.63;35.75
26697;BME280;14312;52.614;13.496;2023-06-22T10:47:40;101257.75;;;34.73;35.37
26697;BME280;14312;52.614;13.496;2023-06-22T10:50:27;101257.75;;;34.83;34.81
26697;BME280;14312;52.614;13.496;2023-06-22T10:53:15;101253.84;;;34.88;33.96
26697;BME280;14312;52.614;13.496;2023-06-22T10:56:01;101250.66;;;34.86;34.00
26697;BME280;14312;52.614;13.496;2023-06-22T10:58:48;101246.69;;;34.80;33.89
26697;BME280;14312;52.614;13.496;2023-06-22T11:01:34;101238.34;;;34.73;34.30
26697;BME280;14312;52.614;13.496;2023-06-22T11:04:20;101229.97;;;34.69;34.20
26697;BME280;14312;52.614;13.496;2023-06-22T11:07:06;101231.56;;;34.70;33.96
26697;BME280;14312;52.614;13.496;2023-06-22T11:09:52;101231.63;;;34.74;34.17
26697;BME280;14312;52.614;13.496;2023-06-22T11:12:38;101227.25;;;34.73;33.88
26697;BME280;14312;52.614;13.496;2023-06-22T11:15:25;101226.03;;;34.67;33.88
26697;BME280;14312;52.614;13.496;2023-06-22T11:18:10;101221.63;;;34.58;33.75
26697;BME280;14312;52.614;13.496;2023-06-22T11:20:59;101233.88;;;34.50;33.77
26697;BME280;14312;52.614;13.496;2023-06-22T11:23:45;101218.78;;;34.37;34.25
26697;BME280;14312;52.614;13.496;2023-06-22T11:26:31;101225.06;;;34.34;34.04
26697;BME280;14312;52.614;13.496;2023-06-22T11:29:20;101220.34;;;34.35;34.27
26697;BME280;14312;52.614;13.496;2023-06-22T11:32:06;101215.22;;;34.40;33.61
26697;BME280;14312;52.614;13.496;2023-06-22T11:34:53;101215.63;;;34.42;33.79
26697;BME280;14312;52.614;13.496;2023-06-22T11:37:38;101217.63;;;34.45;33.57
26697;BME280;14312;52.614;13.496;2023-06-22T11:40:24;101218.81;;;34.44;33.46
26697;BME280;14312;52.614;13.496;2023-06-22T11:43:10;101207.72;;;34.44;34.02
26697;BME280;14312;52.614;13.496;2023-06-22T11:45:56;101209.31;;;34.49;34.48
26697;BME280;14312;52.614;13.496;2023-06-22T11:48:43;101223.63;;;34.62;34.16
26697;BME280;14312;52.614;13.496;2023-06-22T11:51:29;101222.13;;;34.82;34.67
26697;BME280;14312;52.614;13.496;2023-06-22T11:54:17;101227.38;;;35.08;34.20
26697;BME280;14312;52.614;13.496;2023-06-22T11:57:03;101206.44;;;35.36;33.24
26697;BME280;14312;52.614;13.496;2023-06-22T11:59:49;101207.22;;;35.61;33.31
26697;BME280;14312;52.614;13.496;2023-06-22T12:02:35;101213.97;;;35.81;32.64
26697;BME280;14312;52.614;13.496;2023-06-22T12:05:21;101207.25;;;35.89;29.71
26697;BME280;14312;52.614;13.496;2023-06-22T12:08:07;101205.66;;;35.74;30.75
26697;BME280;14312;52.614;13.496;2023-06-22T12:10:53;101201.69;;;35.54;31.00
26697;BME280;14312;52.614;13.496;2023-06-22T12:13:39;101201.69;;;35.40;31.45
26697;BME280;14312;52.614;13.496;2023-06-22T12:16:25;101193.78;;;35.31;31.45
26697;BME280;14312;52.614;13.496;2023-06-22T12:19:11;101196.16;;;35.22;32.19
26697;BME280;14312;52.614;13.496;2023-06-22T12:21:58;101185.41;;;35.13;31.75
26697;BME280;14312;52.614;13.496;2023-06-22T12:24:43;101182.22;;;35.04;32.45
26697;BME280;14312;52.614;13.496;2023-06-22T12:27:30;101181.84;;;35.02;32.47
26697;BME280;14312;52.614;13.496;2023-06-22T12:30:16;101174.31;;;35.06;32.50
26697;BME280;14312;52.614;13.496;2023-06-22T12:33:02;101172.31;;;35.17;32.41
26697;BME280;14312;52.614;13.496;2023-06-22T12:35:48;101176.34;;;35.34;32.73
26697;BME280;14312;52.614;13.496;2023-06-22T12:38:35;101164.47;;;35.51;31.40
26697;BME280;14312;52.614;13.496;2023-06-22T12:41:21;101152.56;;;35.61;31.60
26697;BME280;14312;52.614;13.496;2023-06-22T12:44:08;101156.53;;;35.71;32.34
26697;BME280;14312;52.614;13.496;2023-06-22T12:46:54;101152.16;;;35.88;31.83
26697;BME280;14312;52.614;13.496;2023-06-22T12:49:40;101142.19;;;36.04;32.26
26697;BME280;14312;52.614;13.496;2023-06-22T12:52:26;101150.91;;;36.21;31.31
26697;BME280;14312;52.614;13.496;2023-06-22T12:55:12;101150.84;;;36.35;31.44
26697;BME280;14312;52.614;13.496;2023-06-22T12:57:58;101143.63;;;36.48;31.79
26697;BME280;14312;52.614;13.496;2023-06-22T13:00:44;101133.25;;;36.66;31.04
26697;BME280;14312;52.614;13.496;2023-06-22T13:03:30;101130.75;;;36.82;31.54
26697;BME280;14312;52.614;13.496;2023-06-22T13:06:16;101127.88;;;36.97;31.03
26697;BME280;14312;52.614;13.496;2023-06-22T13:09:02;101119.88;;;37.06;31.37
26697;BME280;14312;52.614;13.496;2023-06-22T13:11:50;101123.41;;;37.10;31.27
26697;BME280;14312;52.614;13.496;2023-06-22T13:14:38;101125.34;;;37.20;30.40
26697;BME280;14312;52.614;13.496;2023-06-22T13:17:24;101120.50;;;37.28;30.27
26697;BME280;14312;52.614;13.496;2023-06-22T13:20:10;101114.50;;;37.33;30.76
26697;BME280;14312;52.614;13.496;2023-06-22T13:22:56;101119.28;;;37.32;30.38
26697;BME280;14312;52.614;13.496;2023-06-22T13:25:42;101116.94;;;37.27;30.36
26697;BME280;14312;52.614;13.496;2023-06-22T13:28:28;101113.03;;;37.21;30.02
26697;BME280;14312;52.614;13.496;2023-06-22T13:31:15;101111.50;;;37.13;30.64
26697;BME280;14312;52.614;13.496;2023-06-22T13:34:02;101101.16;;;37.10;29.79
26697;BME280;14312;52.614;13.496;2023-06-22T13:36:48;101094.44;;;37.07;30.25
26697;BME280;14312;52.614;13.496;2023-06-22T13:39:34;101094.03;;;37.09;30.42
26697;BME280;14312;52.614;13.496;2023-06-22T13:42:20;101088.44;;;37.16;30.78
26697;BME280;14312;52.614;13.496;2023-06-22T13:45:06;101093.50;;;37.24;30.77
26697;BME280;14312;52.614;13.496;2023-06-22T13:47:52;101097.78;;;37.36;30.61
26697;BME280;14312;52.614;13.496;2023-06-22T13:50:38;101099.25;;;37.51;30.50
26697;BME280;14312;52.614;13.496;2023-06-22T13:53:25;101086.41;;;37.65;30.26
26697;BME280;14312;52.614;13.496;2023-06-22T13:56:12;101079.47;;;37.80;29.83
26697;BME280;14312;52.614;13.496;2023-06-22T13:58:58;101081.25;;;37.97;29.95
26697;BME280;14312;52.614;13.496;2023-06-22T14:01:43;101080.28;;;38.14;29.58
26697;BME280;14312;52.614;13.496;2023-06-22T14:04:29;101057.78;;;38.28;29.49
26697;BME280;14312;52.614;13.496;2023-06-22T14:07:15;101064.00;;;38.39;29.24
26697;BME280;14312;52.614;13.496;2023-06-22T14:10:01;101059.16;;;38.44;29.22
26697;BME280;14312;52.614;13.496;2023-06-22T14:12:47;101043.97;;;38.48;29.36
26697;BME280;14312;52.614;13.496;2023-06-22T14:15:33;101039.22;;;38.49;29.23
26697;BME280;14312;52.614;13.496;2023-06-22T14:18:19;101026.47;;;38.48;29.14
26697;BME280;14312;52.614;13.496;2023-06-22T14:21:05;101031.31;;;38.44;29.04
26697;BME280;14312;52.614;13.496;2023-06-22T14:23:51;101019.41;;;38.39;29.01
26697;BME280;14312;52.614;13.496;2023-06-22T14:26:37;101025.84;;;38.36;28.86
26697;BME280;14312;52.614;13.496;2023-06-22T14:29:23;101027.50;;;38.30;28.70
26697;BME280;14312;52.614;13.496;2023-06-22T14:32:09;101017.31;;;38.20;28.52